Terminal Aerodrome Forecast
Issued by NWS Sterling, VA

Current Version | Previous Version | Graphics & Text | Print | Product List | Glossary On
Versions: 1 2 3 4 5 6 7 8 9 10 11 12 13 14 15 16 17 18 19 20 21 22 23 24
900
FTUS41 KLWX 112322
TAFDCA
TAF
KDCA 112322Z 1200/1224 30010G17KT P6SM FEW250
     FM120200 30009KT P6SM SKC
     FM120700 30005KT P6SM FEW150 FEW250
     FM121300 23004KT P6SM SCT110 BKN250=

USA.gov is the U.S. government's official web portal to all federal, state and local government web resources and services.